createdAt,value
2017-05-02T00:01:23.795Z,7.94
2017-05-02T00:03:53.815Z,10.68
2017-05-02T00:06:23.847Z,7.92
2017-05-02T00:08:53.664Z,7.34
2017-05-02T00:11:22.704Z,6.62
2017-05-02T00:13:52.061Z,8.00
2017-05-02T00:16:21.360Z,8.02
2017-05-02T00:18:50.661Z,7.44
2017-05-02T00:21:20.781Z,7.58
2017-05-02T00:23:50.556Z,7.10
2017-05-02T00:26:19.648Z,9.30
2017-05-02T00:28:48.680Z,7.02
2017-05-02T00:31:18.504Z,7.88
2017-05-02T00:33:47.540Z,9.00
2017-05-02T00:36:16.620Z,10.36
2017-05-02T00:38:45.715Z,7.10
2017-05-02T00:41:14.750Z,7.72
2017-05-02T00:43:43.807Z,7.28
2017-05-02T00:46:12.868Z,7.24
2017-05-02T00:48:42.684Z,7.70
2017-05-02T00:51:11.715Z,7.58
2017-05-02T00:53:40.784Z,7.22
2017-05-02T00:56:09.823Z,7.18
2017-05-02T00:58:38.897Z,7.36
2017-05-02T01:01:07.927Z,9.02
2017-05-02T01:03:36.988Z,6.64
2017-05-02T01:06:06.024Z,10.90
2017-05-02T01:08:35.828Z,7.48
2017-05-02T01:11:04.867Z,6.40
2017-05-02T01:13:33.934Z,7.70
2017-05-02T01:16:03.712Z,7.32
2017-05-02T01:18:32.790Z,7.76
2017-05-02T01:21:01.842Z,11.78
2017-05-02T01:23:31.650Z,6.90
2017-05-02T01:26:01.425Z,6.18
2017-05-02T01:28:30.490Z,6.66
2017-05-02T01:30:59.771Z,6.80
2017-05-02T01:33:28.831Z,7.88
2017-05-02T01:35:58.159Z,7.06
2017-05-02T01:38:28.017Z,6.64
2017-05-02T01:40:57.062Z,8.48
2017-05-02T01:43:26.137Z,7.80
2017-05-02T01:45:55.184Z,6.90
2017-05-02T01:48:24.581Z,7.72
2017-05-02T01:50:53.615Z,6.68
2017-05-02T01:53:22.697Z,7.72
2017-05-02T01:55:51.727Z,6.34
2017-05-02T01:58:20.782Z,7.58
2017-05-02T02:00:49.821Z,7.84
2017-05-02T02:03:18.901Z,9.26
2017-05-02T02:05:47.940Z,9.38
2017-05-02T02:08:17.738Z,7.52
2017-05-02T02:10:47.546Z,6.24
2017-05-02T02:13:16.570Z,6.98
2017-05-02T02:15:45.638Z,6.24
2017-05-02T02:18:15.411Z,7.62
2017-05-02T02:20:44.764Z,6.88
2017-05-02T02:23:13.796Z,7.50
2017-05-02T02:25:42.865Z,7.10
2017-05-02T02:28:11.896Z,6.54
2017-05-02T02:30:40.964Z,7.74
2017-05-02T02:33:09.992Z,7.30
2017-05-02T02:35:39.056Z,6.26
2017-05-02T02:38:08.088Z,6.30
2017-05-02T02:40:37.148Z,6.94
2017-05-02T02:43:06.203Z,6.36
2017-05-02T02:45:35.255Z,7.44
2017-05-02T02:48:04.282Z,5.98
2017-05-02T02:50:33.340Z,6.86
2017-05-02T02:53:02.369Z,6.66
2017-05-02T02:55:31.429Z,7.18
2017-05-02T02:58:00.452Z,6.48
2017-05-02T03:00:29.540Z,6.18
2017-05-02T03:02:58.559Z,5.72
2017-05-02T03:05:27.878Z,6.82
2017-05-02T03:07:57.647Z,7.20
2017-05-02T03:10:26.739Z,9.80
2017-05-02T03:12:56.098Z,8.44
2017-05-02T03:15:25.166Z,6.54
2017-05-02T03:17:54.196Z,6.16
2017-05-02T03:20:23.265Z,5.82
2017-05-02T03:22:53.035Z,6.84
2017-05-02T03:25:22.103Z,7.72
2017-05-02T03:27:51.137Z,6.96
2017-05-02T03:30:20.480Z,7.50
2017-05-02T03:32:50.296Z,9.38
2017-05-02T03:35:20.065Z,6.82
2017-05-02T03:37:49.151Z,6.18
2017-05-02T03:40:18.185Z,6.00
2017-05-02T03:42:48.012Z,10.90
2017-05-02T03:45:17.043Z,6.96
2017-05-02T03:47:46.120Z,7.88
2017-05-02T03:50:15.147Z,8.24
2017-05-02T03:52:44.205Z,8.38
2017-05-02T03:55:13.800Z,6.66
2017-05-02T03:57:42.839Z,6.42
2017-05-02T04:00:11.900Z,7.16
2017-05-02T04:02:41.444Z,9.06
2017-05-02T04:05:10.519Z,7.22
2017-05-02T04:07:39.548Z,9.00
2017-05-02T04:10:08.660Z,9.70
2017-05-02T04:12:37.692Z,6.48
2017-05-02T04:15:06.789Z,7.28
2017-05-02T04:17:35.821Z,6.98
2017-05-02T04:20:04.896Z,7.24
2017-05-02T04:22:33.919Z,6.28
2017-05-02T04:25:02.984Z,7.84
2017-05-02T04:27:32.271Z,9.62
2017-05-02T04:30:01.314Z,7.90
2017-05-02T04:32:30.380Z,11.32
2017-05-02T04:34:59.410Z,7.90
2017-05-02T04:37:28.481Z,8.08
2017-05-02T04:39:57.512Z,8.10
2017-05-02T04:42:26.565Z,11.40
2017-05-02T04:44:55.924Z,8.52
2017-05-02T04:47:25.726Z,7.94
2017-05-02T04:49:55.539Z,7.24
2017-05-02T04:52:25.320Z,8.16
2017-05-02T04:54:54.380Z,8.24
2017-05-02T04:57:23.467Z,8.82
2017-05-02T04:59:52.535Z,7.38
2017-05-02T05:02:21.599Z,10.46
2017-05-02T05:04:50.727Z,7.46
2017-05-02T05:07:19.777Z,8.16
2017-05-02T05:09:48.830Z,8.42
2017-05-02T05:12:18.679Z,8.54
2017-05-02T05:14:47.739Z,7.42
2017-05-02T05:17:17.565Z,7.84
2017-05-02T05:19:46.628Z,7.46
2017-05-02T05:22:15.650Z,8.76
2017-05-02T05:24:44.722Z,9.36
2017-05-02T05:27:13.752Z,10.44
2017-05-02T05:29:42.828Z,11.10
2017-05-02T05:32:12.116Z,8.32
2017-05-02T05:34:41.929Z,8.94
2017-05-02T05:37:10.963Z,8.10
2017-05-02T05:39:40.031Z,8.90
2017-05-02T05:42:09.818Z,8.48
2017-05-02T05:44:38.839Z,8.24
2017-05-02T05:47:08.628Z,9.10
2017-05-02T05:49:37.646Z,8.86
2017-05-02T05:52:06.722Z,7.60
2017-05-02T05:54:36.507Z,8.46
2017-05-02T05:57:05.570Z,8.70
2017-05-02T05:59:34.594Z,7.94
2017-05-02T06:02:03.671Z,9.90
2017-05-02T06:04:32.736Z,11.40
2017-05-02T06:07:01.768Z,10.56
2017-05-02T06:09:30.839Z,8.10
2017-05-02T06:12:00.171Z,10.72
2017-05-02T06:14:30.127Z,8.04
2017-05-02T06:16:59.916Z,12.00
2017-05-02T06:19:28.991Z,9.28
2017-05-02T06:21:58.036Z,9.84
2017-05-02T06:24:27.859Z,11.50
2017-05-02T06:26:57.677Z,7.62
2017-05-02T06:29:27.455Z,8.66
2017-05-02T06:31:56.535Z,10.42
2017-05-02T06:34:25.577Z,10.38
2017-05-02T06:36:54.638Z,8.42
2017-05-02T06:39:23.707Z,9.04
2017-05-02T06:41:52.747Z,10.00
2017-05-02T06:44:22.556Z,8.20
2017-05-02T06:46:52.366Z,14.40
2017-05-02T06:49:22.411Z,10.12
2017-05-02T06:51:51.455Z,9.44
2017-05-02T06:54:20.511Z,12.72
2017-05-02T06:56:49.577Z,8.64
2017-05-02T06:59:19.374Z,8.62
2017-05-02T07:01:48.416Z,9.30
2017-05-02T07:04:17.495Z,12.88
2017-05-02T07:06:47.614Z,8.94
2017-05-02T07:09:16.645Z,10.60
2017-05-02T07:11:45.717Z,10.78
2017-05-02T07:14:14.760Z,10.28
2017-05-02T07:16:43.822Z,11.84
2017-05-02T07:19:12.871Z,9.04
2017-05-02T07:21:42.692Z,11.20
2017-05-02T07:24:12.492Z,11.82
2017-05-02T07:26:41.560Z,8.96
2017-05-02T07:29:10.862Z,11.38
2017-05-02T07:31:39.946Z,11.94
2017-05-02T07:34:09.000Z,12.60
2017-05-02T07:36:38.814Z,10.02
2017-05-02T07:39:07.855Z,8.88
2017-05-02T07:41:36.923Z,11.28
2017-05-02T07:44:05.972Z,10.26
2017-05-02T07:46:35.039Z,12.44
2017-05-02T07:49:04.084Z,12.80
2017-05-02T07:51:33.903Z,11.02
2017-05-02T07:54:03.720Z,11.62
2017-05-02T07:56:32.794Z,16.34
2017-05-02T07:59:01.842Z,12.28
2017-05-02T08:01:30.936Z,14.58
2017-05-02T08:03:59.985Z,11.66
2017-05-02T08:06:29.793Z,11.00
2017-05-02T08:08:58.866Z,10.10
2017-05-02T08:11:27.904Z,10.50
2017-05-02T08:13:56.991Z,12.10
2017-05-02T08:16:26.780Z,9.68
2017-05-02T08:18:56.117Z,11.56
2017-05-02T08:21:25.415Z,11.74
2017-05-02T08:23:54.455Z,10.68
2017-05-02T08:26:23.538Z,12.78
2017-05-02T08:28:52.597Z,12.90
2017-05-02T08:31:22.417Z,11.78
2017-05-02T08:33:51.476Z,10.20
2017-05-02T08:36:20.816Z,12.60
2017-05-02T08:38:49.868Z,15.12
2017-05-02T08:41:18.964Z,12.00
2017-05-02T08:43:48.011Z,12.04
2017-05-02T08:46:17.083Z,11.50
2017-05-02T08:48:46.168Z,14.80
2017-05-02T08:51:15.956Z,14.16
2017-05-02T08:53:45.050Z,11.86
2017-05-02T08:56:14.093Z,10.64
2017-05-02T08:58:43.196Z,12.70
2017-05-02T09:01:12.272Z,13.72
2017-05-02T09:03:42.309Z,12.70
2017-05-02T09:06:11.384Z,11.12
2017-05-02T09:08:41.168Z,17.18
2017-05-02T09:11:10.251Z,9.86
2017-05-02T09:13:39.301Z,14.54
2017-05-02T09:16:08.370Z,13.02
2017-05-02T09:18:38.197Z,11.82
2017-05-02T09:21:08.010Z,11.34
2017-05-02T09:23:37.864Z,15.10
2017-05-02T09:26:06.911Z,12.36
2017-05-02T09:28:36.734Z,16.60
2017-05-02T09:31:06.524Z,12.40
2017-05-02T09:33:35.860Z,11.24
2017-05-02T09:36:04.900Z,11.32
2017-05-02T09:38:34.036Z,15.12
2017-05-02T09:41:04.068Z,11.86
2017-05-02T09:43:33.373Z,11.62
2017-05-02T09:46:02.409Z,11.94
2017-05-02T09:48:31.543Z,9.32
2017-05-02T09:51:01.364Z,10.36
2017-05-02T09:53:31.149Z,13.58
2017-05-02T09:56:00.247Z,12.20
2017-05-02T09:58:29.294Z,18.24
2017-05-02T10:00:58.377Z,11.54
2017-05-02T10:03:27.455Z,11.12
2017-05-02T10:05:57.240Z,11.28
2017-05-02T10:08:26.465Z,10.12
2017-05-02T10:10:56.237Z,11.52
2017-05-02T10:13:25.596Z,9.20
2017-05-02T10:15:54.635Z,8.52
2017-05-02T10:18:23.699Z,8.16
2017-05-02T10:20:52.742Z,8.20
2017-05-02T10:23:21.819Z,13.90
2017-05-02T10:25:50.894Z,7.92
2017-05-02T10:28:19.937Z,10.72
2017-05-02T10:30:49.020Z,8.54
2017-05-02T10:33:18.058Z,7.70
2017-05-02T10:35:47.125Z,6.66
2017-05-02T10:38:16.181Z,9.70
2017-05-02T10:40:45.248Z,7.96
2017-05-02T10:43:14.344Z,10.00
2017-05-02T10:45:43.403Z,6.90
2017-05-02T10:48:12.735Z,7.84
2017-05-02T10:50:41.788Z,7.78
2017-05-02T10:53:10.860Z,12.64
2017-05-02T10:55:40.245Z,6.10
2017-05-02T10:58:09.305Z,6.02
2017-05-02T11:00:38.326Z,6.72
2017-05-02T11:03:07.402Z,7.24
2017-05-02T11:05:36.459Z,5.48
2017-05-02T11:08:05.527Z,8.88
2017-05-02T11:10:34.596Z,9.48
2017-05-02T11:13:04.375Z,7.44
2017-05-02T11:15:33.719Z,7.60
2017-05-02T11:18:02.764Z,6.22
2017-05-02T11:20:31.827Z,10.30
2017-05-02T11:23:00.903Z,8.90
2017-05-02T11:25:30.672Z,8.72
2017-05-02T11:27:59.763Z,9.84
2017-05-02T11:30:28.796Z,7.54
2017-05-02T11:32:58.637Z,7.92
2017-05-02T11:35:27.675Z,8.96
2017-05-02T11:37:56.740Z,5.82
2017-05-02T11:40:25.764Z,5.50
2017-05-02T11:42:54.839Z,7.12
2017-05-02T11:45:23.933Z,6.82
2017-05-02T11:47:53.937Z,9.48
2017-05-02T11:50:23.006Z,8.36
2017-05-02T11:52:52.797Z,10.18
2017-05-02T11:55:21.879Z,8.82
2017-05-02T11:57:50.928Z,8.84
2017-05-02T12:00:20.002Z,6.00
2017-05-02T12:02:49.790Z,7.08
2017-05-02T12:05:18.878Z,10.10
2017-05-02T12:07:47.933Z,6.40
2017-05-02T12:10:16.998Z,7.62
2017-05-02T12:12:46.967Z,7.18
2017-05-02T12:15:15.997Z,8.66
2017-05-02T12:17:45.059Z,6.78
2017-05-02T12:20:14.090Z,14.44
2017-05-02T12:22:43.927Z,7.20
2017-05-02T12:25:13.322Z,7.80
2017-05-02T12:27:42.381Z,8.36
2017-05-02T12:30:11.463Z,8.06
2017-05-02T12:32:40.517Z,9.32
2017-05-02T12:35:09.916Z,11.28
2017-05-02T12:37:38.963Z,6.98
2017-05-02T12:40:08.043Z,8.90
2017-05-02T12:42:37.088Z,8.42
2017-05-02T12:45:06.917Z,9.40
2017-05-02T12:47:36.932Z,8.14
2017-05-02T12:50:06.752Z,8.14
2017-05-02T12:52:35.791Z,9.96
2017-05-02T12:57:33.932Z,8.14
2017-05-02T13:00:03.235Z,11.34
2017-05-02T13:02:32.335Z,7.70
2017-05-02T13:05:01.384Z,8.88
2017-05-02T13:07:30.475Z,9.72
2017-05-02T13:09:59.820Z,8.66
2017-05-02T13:12:29.942Z,7.26
2017-05-02T13:14:59.347Z,15.66
2017-05-02T13:17:28.403Z,9.58
2017-05-02T13:19:57.475Z,13.06
2017-05-02T13:22:26.508Z,10.86
2017-05-02T13:24:56.412Z,12.88
2017-05-02T13:27:25.454Z,10.60
2017-05-02T13:29:54.535Z,11.96
2017-05-02T13:32:23.719Z,10.76
2017-05-02T13:34:52.768Z,7.30
2017-05-02T13:37:21.831Z,9.06
2017-05-02T13:39:50.864Z,8.52
2017-05-02T13:42:19.943Z,11.54
2017-05-02T13:44:48.992Z,11.74
2017-05-02T13:47:18.858Z,10.48
2017-05-02T13:49:47.903Z,12.40
2017-05-02T13:52:17.727Z,10.36
2017-05-02T13:54:47.507Z,10.42
2017-05-02T13:57:16.842Z,9.84
2017-05-02T13:59:46.848Z,8.38
2017-05-02T14:02:16.722Z,12.20
2017-05-02T14:04:46.083Z,11.14
2017-05-02T14:07:15.160Z,11.48
2017-05-02T14:09:44.943Z,8.26
2017-05-02T14:12:14.025Z,14.66
2017-05-02T14:14:43.304Z,10.62
2017-05-02T14:17:12.686Z,8.06
2017-05-02T14:19:41.769Z,9.22
2017-05-02T14:22:11.542Z,8.74
2017-05-02T14:24:40.627Z,10.28
2017-05-02T14:27:09.681Z,9.08
2017-05-02T14:29:39.499Z,8.62
2017-05-02T14:32:09.275Z,8.72
2017-05-02T14:34:38.614Z,12.08
2017-05-02T14:37:07.680Z,8.62
2017-05-02T14:39:36.742Z,9.30
2017-05-02T14:42:05.778Z,8.30
2017-05-02T14:44:35.111Z,9.62
2017-05-02T14:47:04.152Z,10.34
2017-05-02T14:49:33.240Z,10.84
2017-05-02T14:52:02.269Z,10.12
2017-05-02T14:54:32.087Z,9.02
2017-05-02T14:57:02.120Z,8.82
2017-05-02T14:59:31.932Z,11.18
2017-05-02T15:02:00.976Z,9.86
2017-05-02T15:04:30.049Z,14.58
2017-05-02T15:06:59.089Z,9.12
2017-05-02T15:09:28.163Z,10.72
2017-05-02T15:11:57.208Z,8.60
2017-05-02T15:14:26.285Z,7.36
2017-05-02T15:16:56.098Z,9.88
2017-05-02T15:19:25.178Z,13.66
2017-05-02T15:21:54.224Z,9.10
2017-05-02T15:24:23.314Z,9.00
2017-05-02T15:26:52.354Z,12.36
2017-05-02T15:29:21.421Z,10.56
2017-05-02T15:31:50.504Z,9.02
2017-05-02T15:34:19.544Z,9.34
2017-05-02T15:36:48.611Z,11.76
2017-05-02T15:39:17.652Z,10.06
2017-05-02T15:41:47.465Z,11.18
2017-05-02T15:44:16.498Z,9.14
2017-05-02T15:46:45.559Z,8.78
2017-05-02T15:49:15.351Z,7.62
2017-05-02T15:51:44.436Z,9.08
2017-05-02T15:54:13.488Z,10.26
2017-05-02T15:56:42.574Z,9.58
2017-05-02T15:59:12.355Z,9.82
2017-05-02T16:01:41.643Z,9.22
2017-05-02T16:04:10.672Z,9.28
2017-05-02T16:06:40.804Z,8.38
2017-05-02T16:09:09.848Z,8.64
2017-05-02T16:11:38.903Z,8.30
2017-05-02T16:14:07.973Z,8.54
2017-05-02T16:16:37.043Z,9.30
2017-05-02T16:19:06.138Z,11.94
2017-05-02T16:21:35.183Z,11.58
2017-05-02T16:24:04.257Z,9.02
2017-05-02T16:26:34.029Z,9.14
2017-05-02T16:29:03.120Z,9.22
2017-05-02T16:31:32.169Z,10.26
2017-05-02T16:34:01.984Z,8.86
2017-05-02T16:36:31.767Z,9.48
2017-05-02T16:39:00.860Z,13.00
2017-05-02T16:41:29.896Z,9.32
2017-05-02T16:43:58.991Z,12.48
2017-05-02T16:46:28.028Z,11.16
2017-05-02T16:48:57.131Z,10.92
2017-05-02T16:51:26.159Z,10.26
2017-05-02T16:53:55.972Z,12.56
2017-05-02T16:56:25.821Z,11.36
2017-05-02T16:58:54.869Z,13.34
2017-05-02T17:01:23.969Z,17.90
2017-05-02T17:03:53.761Z,10.92
2017-05-02T17:06:22.827Z,11.50
2017-05-02T17:08:51.940Z,13.04
2017-05-02T17:11:20.997Z,13.02
2017-05-02T17:13:50.089Z,14.20
2017-05-02T17:16:19.140Z,14.76
2017-05-02T17:18:48.211Z,13.82
2017-05-02T17:21:17.256Z,12.90
2017-05-02T17:23:47.069Z,13.74
2017-05-02T17:26:16.890Z,15.96
2017-05-02T17:28:46.712Z,13.20
2017-05-02T17:31:15.751Z,13.22
2017-05-02T17:33:44.832Z,13.62
2017-05-02T17:36:14.212Z,13.20
2017-05-02T17:38:43.263Z,14.72
2017-05-02T17:41:12.346Z,12.98
2017-05-02T17:43:41.435Z,13.64
2017-05-02T17:46:10.496Z,13.14
2017-05-02T17:48:39.804Z,14.24
2017-05-02T17:51:10.072Z,12.62
2017-05-02T17:53:39.926Z,12.94
2017-05-02T17:56:08.976Z,14.00
2017-05-02T17:58:38.067Z,18.10
2017-05-02T18:01:07.180Z,12.70
2017-05-02T18:03:36.272Z,13.42
2017-05-02T18:06:05.327Z,13.78
2017-05-02T18:08:34.411Z,17.16
2017-05-02T18:11:03.487Z,14.78
2017-05-02T18:13:33.619Z,14.08
2017-05-02T18:16:02.936Z,16.06
2017-05-02T18:18:31.980Z,15.54
2017-05-02T18:21:01.315Z,14.74
2017-05-02T18:23:30.383Z,17.40
2017-05-02T18:25:59.452Z,19.30
2017-05-02T18:28:28.505Z,16.36
2017-05-02T18:30:57.577Z,13.90
2017-05-02T18:33:27.363Z,13.24
2017-05-02T18:35:56.458Z,16.12
2017-05-02T18:38:25.508Z,22.92
2017-05-02T18:40:54.588Z,14.92
2017-05-02T18:43:24.657Z,19.62
2017-05-02T18:45:53.694Z,17.42
2017-05-02T18:48:23.524Z,16.72
2017-05-02T18:50:52.558Z,20.08
2017-05-02T18:53:21.638Z,18.48
2017-05-02T18:55:50.716Z,20.10
2017-05-02T18:58:20.017Z,14.82
2017-05-02T19:00:49.118Z,19.18
2017-05-02T19:03:18.164Z,16.54
2017-05-02T19:05:47.240Z,16.06
2017-05-02T19:08:16.296Z,16.28
2017-05-02T19:10:45.380Z,25.30
2017-05-02T19:13:15.157Z,19.32
2017-05-02T19:15:44.239Z,19.04
2017-05-02T19:18:13.297Z,16.24
2017-05-02T19:20:42.383Z,17.42
2017-05-02T19:23:11.439Z,17.74
2017-05-02T19:25:40.537Z,17.30
2017-05-02T19:28:09.580Z,22.66
2017-05-02T19:30:38.699Z,20.82
2017-05-02T19:33:07.787Z,24.04
2017-05-02T19:35:36.857Z,21.60
2017-05-02T19:38:06.660Z,18.88
2017-05-02T19:40:36.453Z,22.26
2017-05-02T19:43:05.534Z,18.32
2017-05-02T19:45:34.588Z,17.74
2017-05-02T19:48:03.659Z,18.60
2017-05-02T19:50:33.453Z,27.28
2017-05-02T19:53:02.534Z,16.98
2017-05-02T19:55:31.583Z,19.36
2017-05-02T19:58:00.672Z,17.94
2017-05-02T20:00:30.175Z,21.82
2017-05-02T20:02:59.217Z,19.68
2017-05-02T20:05:28.307Z,20.32
2017-05-02T20:07:57.347Z,20.72
2017-05-02T20:10:27.168Z,21.38
2017-05-02T20:12:56.969Z,17.88
2017-05-02T20:15:26.778Z,21.14
2017-05-02T20:17:56.819Z,24.30
2017-05-02T20:20:25.912Z,21.24
2017-05-02T20:22:55.693Z,23.46
2017-05-02T20:25:24.771Z,26.22
2017-05-02T20:27:53.855Z,23.66
2017-05-02T20:30:23.220Z,25.50
2017-05-02T20:32:52.305Z,22.10
2017-05-02T20:35:21.624Z,24.80
2017-05-02T20:37:50.988Z,21.82
2017-05-02T20:40:20.088Z,21.58
2017-05-02T20:42:49.126Z,21.56
2017-05-02T20:45:18.515Z,21.94
2017-05-02T20:47:47.591Z,23.12
2017-05-02T20:50:17.375Z,23.10
2017-05-02T20:52:46.469Z,18.68
2017-05-02T20:55:15.516Z,29.10
2017-05-02T20:57:44.590Z,20.38
2017-05-02T21:00:14.509Z,22.32
2017-05-02T21:02:44.748Z,18.16
2017-05-02T21:05:14.518Z,20.04
2017-05-02T21:07:43.612Z,24.90
2017-05-02T21:10:12.686Z,22.76
2017-05-02T21:12:41.779Z,29.08
2017-05-02T21:15:10.825Z,25.24
2017-05-02T21:17:40.965Z,23.16
2017-05-02T21:20:10.054Z,31.76
2017-05-02T21:22:39.827Z,26.74
2017-05-02T21:25:08.911Z,23.64
2017-05-02T21:27:37.952Z,29.88
2017-05-02T21:30:07.764Z,24.78
2017-05-02T21:32:37.607Z,22.28
2017-05-02T21:35:06.638Z,26.98
2017-05-02T21:37:35.732Z,31.00
2017-05-02T21:40:04.775Z,27.38
2017-05-02T21:42:33.854Z,26.68
2017-05-02T21:45:03.667Z,27.76
2017-05-02T21:47:33.478Z,20.30
2017-05-02T21:50:03.267Z,24.06
2017-05-02T21:52:32.347Z,29.64
2017-05-02T21:55:01.386Z,28.68
2017-05-02T21:57:31.211Z,25.94
2017-05-02T22:00:00.250Z,22.74
2017-05-02T22:02:29.335Z,27.60
2017-05-02T22:04:58.441Z,30.64
2017-05-02T22:07:27.527Z,29.46
2017-05-02T22:09:56.628Z,26.04
2017-05-02T22:12:25.668Z,29.80
2017-05-02T22:14:55.498Z,27.50
2017-05-02T22:17:24.562Z,27.88
2017-05-02T22:19:53.633Z,28.78
2017-05-02T22:22:22.787Z,33.74
2017-05-02T22:24:51.834Z,27.68
2017-05-02T22:27:20.918Z,36.32
2017-05-02T22:29:49.959Z,34.94
2017-05-02T22:32:19.795Z,32.04
2017-05-02T22:34:48.840Z,33.44
2017-05-02T22:37:17.923Z,33.16
2017-05-02T22:39:46.959Z,38.04
2017-05-02T22:42:16.770Z,34.66
2017-05-02T22:44:46.581Z,37.10
2017-05-02T22:47:16.366Z,31.02
2017-05-02T22:49:45.452Z,32.16
2017-05-02T22:52:14.503Z,30.48
2017-05-02T22:54:43.574Z,34.34
2017-05-02T22:57:13.360Z,30.94
2017-05-02T22:59:42.442Z,35.76
2017-05-02T23:02:11.499Z,35.10
2017-05-02T23:04:40.905Z,33.48
2017-05-02T23:07:09.961Z,39.46
2017-05-02T23:09:39.041Z,28.98
2017-05-02T23:12:08.072Z,32.92
2017-05-02T23:14:37.883Z,34.76
2017-05-02T23:17:07.668Z,38.12
2017-05-02T23:19:36.738Z,35.72
2017-05-02T23:22:05.793Z,40.18
2017-05-02T23:24:35.608Z,38.18
2017-05-02T23:27:05.392Z,32.54
2017-05-02T23:29:34.483Z,36.44
2017-05-02T23:32:03.564Z,32.72
2017-05-02T23:34:32.623Z,34.62
2017-05-02T23:37:01.671Z,35.26
2017-05-02T23:39:30.735Z,35.30
2017-05-02T23:41:59.829Z,30.62
2017-05-02T23:44:28.866Z,35.26
2017-05-02T23:46:57.953Z,33.32
2017-05-02T23:49:27.016Z,36.20
2017-05-02T23:51:56.087Z,39.72
2017-05-02T23:54:25.122Z,31.52
2017-05-02T23:56:54.209Z,33.78
2017-05-02T23:59:23.254Z,35.28
